Terminal Aerodrome Forecast
Issued by NWS Springfield, MO

Home | Current Version | Previous Version | Text Only | Print | Product List | Glossary On
Versions: 1 2 3 4 5 6 7 8 9 10 11 12 13 14 15 16 17 18 19 20 21 22 23 24 25 26 27 28 29 30 31 32 33 34
922
FTUS43 KSGF 190520
TAFSGF
TAF
KSGF 190520Z 1906/2006 15010KT P6SM SCT007 OVC015
      TEMPO 1906/1908 3SM -DZ BR OVC007
     FM190800 15008KT 3SM -DZ BR OVC003
      TEMPO 1912/1916 2SM -DZ BR OVC002
     FM191600 16006KT 4SM BR OVC007
     FM200100 15005KT 4SM BR OVC003=

USA.gov is the U.S. government's official web portal to all federal, state and local government web resources and services.